CheckWX is a tool to help pilots better visualize weather data.  It is not intended as a substitute for an official pre-flight weather briefing.

03:17:04 UTC

GVBA TAF
Rabil Airport
Rabil, Cape Verde
TAF GVBA 262300Z 2700/2806 04007KT CAVOK TEMPO 2710/2716 05017KT PROB40 2721/2806 6000 NSC

Jan-27@
00:00 UTC

Jan-27 @ 00:00 UTC

Jan-28@
06:00 UTC

Jan-28 @ 06:00 UTC

TAF GVBA 262300Z 2700/2806 04007KT CAVOK
Wind
  • 040° at 7 KTS
Conditions
No significant weather
Cloud Levels
  • No significant clouds

Jan-27@
10:00 UTC

Jan-27 @ 10:00 UTC

Jan-27@
16:00 UTC

Jan-27 @ 16:00 UTC

TEMPO 2710/2716 05017KT

Temporary

Temporary Changes expected for less than half the time period

Wind
  • 050° at 17 KTS

Jan-27@
21:00 UTC

Jan-27 @ 21:00 UTC

Jan-28@
06:00 UTC

Jan-28 @ 06:00 UTC

PROB40 2721/2806 6000 NSC

Probable - 40% Likelihood

Probable - 40% Likelihood during this time.

Cloud Levels
  • No significant clouds